createdAt,value
2022-11-09T00:01:30.139Z,96264.59
2022-11-09T00:04:00.129Z,96261.78
2022-11-09T00:06:29.906Z,96268.81
2022-11-09T00:09:05.759Z,96271.66
2022-11-09T00:11:37.673Z,96262.97
2022-11-09T00:14:06.449Z,96259.44
2022-11-09T00:16:35.539Z,96252.38
2022-11-09T00:19:04.275Z,96240.03
2022-11-09T00:21:32.995Z,96248.75
2022-11-09T00:24:02.719Z,96251.41
2022-11-09T00:26:31.383Z,96259.38
2022-11-09T00:29:00.958Z,96263.03
2022-11-09T00:31:29.560Z,96270.06
2022-11-09T00:33:58.480Z,96271.13
2022-11-09T00:36:29.114Z,96280.28
2022-11-09T00:38:58.893Z,96272.78
2022-11-09T00:41:29.913Z,96247.66
2022-11-09T00:43:58.272Z,96256.34
2022-11-09T00:46:27.638Z,96257.59
2022-11-09T00:48:56.872Z,96253.88
2022-11-09T00:51:26.456Z,96254.16
2022-11-09T00:53:57.352Z,96268.41
2022-11-09T00:56:26.509Z,96270.19
2022-11-09T00:58:56.720Z,96274.34
2022-11-09T01:01:25.892Z,96277.72
2022-11-09T01:03:54.711Z,96274.19
2022-11-09T01:06:26.664Z,96264.50
2022-11-09T01:08:55.252Z,96262.34
2022-11-09T01:11:24.771Z,96258.81
2022-11-09T01:14:00.464Z,96236.66
2022-11-09T01:16:30.665Z,96252.59
2022-11-09T01:19:00.114Z,96253.16
2022-11-09T01:21:29.463Z,96245.53
2022-11-09T01:24:01.725Z,96229.22
2022-11-09T01:26:31.000Z,96233.78
2022-11-09T01:29:00.837Z,96217.84
2022-11-09T01:31:29.523Z,96223.75
2022-11-09T01:33:58.448Z,96233.00
2022-11-09T01:36:26.879Z,96223.66
2022-11-09T01:38:55.775Z,96224.47
2022-11-09T01:41:29.529Z,96223.66
2022-11-09T01:44:08.860Z,96230.91
2022-11-09T01:46:47.434Z,96231.75
2022-11-09T01:49:22.182Z,96244.03
2022-11-09T01:51:54.900Z,96223.22
2022-11-09T01:54:27.889Z,96248.34
2022-11-09T01:57:01.085Z,96252.78
2022-11-09T01:59:35.061Z,96239.03
2022-11-09T02:02:05.531Z,96244.06
2022-11-09T02:04:39.643Z,96237.81
2022-11-09T02:07:11.911Z,96238.22
2022-11-09T02:09:46.561Z,96245.97
2022-11-09T02:12:17.178Z,96243.28
2022-11-09T02:14:50.370Z,96241.16
2022-11-09T02:17:20.368Z,96234.38
2022-11-09T02:19:48.836Z,96228.97
2022-11-09T02:22:19.795Z,96233.16
2022-11-09T02:24:50.842Z,96236.41
2022-11-09T02:27:23.264Z,96234.63
2022-11-09T02:29:52.314Z,96234.56
2022-11-09T02:32:24.564Z,96225.06
2022-11-09T02:34:55.125Z,96235.94
2022-11-09T02:37:30.116Z,96229.94
2022-11-09T02:40:01.730Z,96231.22
2022-11-09T02:42:30.413Z,96222.75
2022-11-09T02:45:01.367Z,96189.59
2022-11-09T02:47:29.801Z,96221.56
2022-11-09T02:50:00.376Z,96228.63
2022-11-09T02:52:30.213Z,96223.22
2022-11-09T02:54:59.569Z,96231.44
2022-11-09T02:57:28.475Z,96222.75
2022-11-09T02:59:58.198Z,96229.44
2022-11-09T03:02:26.830Z,96226.53
2022-11-09T03:04:56.158Z,96232.00
2022-11-09T03:07:25.143Z,96231.16
2022-11-09T03:09:55.122Z,96225.31
2022-11-09T03:12:32.486Z,96234.22
2022-11-09T03:15:09.085Z,96233.16
2022-11-09T03:17:42.326Z,96229.66
2022-11-09T03:20:12.200Z,96229.06
2022-11-09T03:22:42.113Z,96234.53
2022-11-09T03:25:12.307Z,96237.63
2022-11-09T03:27:42.158Z,96244.06
2022-11-09T03:30:11.614Z,96230.28
2022-11-09T03:32:42.636Z,96230.81
2022-11-09T03:35:13.132Z,96233.00
2022-11-09T03:37:42.442Z,96239.81
2022-11-09T03:40:13.967Z,96235.25
2022-11-09T03:42:46.011Z,96238.16
2022-11-09T03:45:15.190Z,96239.41
2022-11-09T03:47:44.174Z,96235.06
2022-11-09T03:50:14.602Z,96238.41
2022-11-09T03:52:45.548Z,96243.84
2022-11-09T03:55:16.481Z,96243.03
2022-11-09T03:57:46.053Z,96250.50
2022-11-09T04:00:18.310Z,96245.72
2022-11-09T04:02:46.902Z,96241.59
2022-11-09T04:05:16.792Z,96255.75
2022-11-09T04:07:49.403Z,96257.00
2022-11-09T04:10:21.226Z,96252.44
2022-11-09T04:12:49.962Z,96250.97
2022-11-09T04:15:18.980Z,96248.69
2022-11-09T04:17:56.266Z,96256.56
2022-11-09T04:20:24.714Z,96253.00
2022-11-09T04:22:57.028Z,96251.56
2022-11-09T04:25:27.268Z,96256.13
2022-11-09T04:27:57.212Z,96249.91
2022-11-09T04:30:28.005Z,96251.63
2022-11-09T04:32:57.479Z,96246.31
2022-11-09T04:35:27.135Z,96253.34
2022-11-09T04:37:56.496Z,96242.41
2022-11-09T04:40:27.645Z,96244.72
2022-11-09T04:42:57.179Z,96245.13
2022-11-09T04:45:25.536Z,96248.56
2022-11-09T04:47:59.127Z,96242.84
2022-11-09T04:50:31.525Z,96252.44
2022-11-09T04:53:19.400Z,96247.47
2022-11-09T04:55:50.104Z,96242.16
2022-11-09T04:58:23.801Z,96246.28
2022-11-09T05:00:54.774Z,96245.03
2022-11-09T05:03:23.447Z,96248.09
2022-11-09T05:05:52.683Z,96239.78
2022-11-09T05:08:21.078Z,96242.91
2022-11-09T05:10:51.664Z,96241.06
2022-11-09T05:13:20.225Z,96246.47
2022-11-09T05:15:49.077Z,96249.28
2022-11-09T05:18:17.483Z,96255.06
2022-11-09T05:20:46.583Z,96248.03
2022-11-09T05:23:33.203Z,96242.78
2022-11-09T05:26:03.274Z,96254.78
2022-11-09T05:28:32.592Z,96255.63
2022-11-09T05:31:01.008Z,96253.16
2022-11-09T05:33:30.046Z,96256.31
2022-11-09T05:35:59.253Z,96257.78
2022-11-09T05:38:28.620Z,96260.34
2022-11-09T05:40:57.052Z,96259.34
2022-11-09T05:43:27.639Z,96262.44
2022-11-09T05:45:56.375Z,96256.69
2022-11-09T05:48:25.314Z,96256.53
2022-11-09T05:50:54.523Z,96250.00
2022-11-09T05:53:26.226Z,96250.44
2022-11-09T05:55:55.052Z,96252.31
2022-11-09T05:58:23.803Z,96262.19
2022-11-09T06:00:53.599Z,96282.34
2022-11-09T06:03:22.358Z,96272.34
2022-11-09T06:05:51.087Z,96275.72
2022-11-09T06:08:19.961Z,96282.34
2022-11-09T06:10:48.882Z,96284.38
2022-11-09T06:13:17.580Z,96273.63
2022-11-09T06:15:56.244Z,96274.22
2022-11-09T06:18:25.488Z,96278.19
2022-11-09T06:20:54.367Z,96286.31
2022-11-09T06:23:26.182Z,96291.88
2022-11-09T06:25:54.897Z,96271.56
2022-11-09T06:28:23.910Z,96287.63
2022-11-09T06:30:52.331Z,96286.97
2022-11-09T06:33:23.089Z,96286.34
2022-11-09T06:35:56.170Z,96285.09
2022-11-09T06:38:27.126Z,96291.53
2022-11-09T06:40:57.269Z,96309.09
2022-11-09T06:43:26.343Z,96311.56
2022-11-09T06:45:55.593Z,96302.91
2022-11-09T06:48:25.553Z,96312.63
2022-11-09T06:50:54.467Z,96302.13
2022-11-09T06:53:23.865Z,96298.44
2022-11-09T06:55:53.209Z,96318.94
2022-11-09T06:58:22.505Z,96335.25
2022-11-09T07:00:51.084Z,96340.59
2022-11-09T07:03:21.747Z,96357.56
2022-11-09T07:05:53.283Z,96380.34
2022-11-09T07:08:22.495Z,96397.72
2022-11-09T07:10:50.935Z,96393.16
2022-11-09T07:13:19.713Z,96389.84
2022-11-09T07:15:54.196Z,96389.78
2022-11-09T07:18:23.073Z,96395.13
2022-11-09T07:20:53.133Z,96387.81
2022-11-09T07:23:22.636Z,96387.59
2022-11-09T07:25:51.275Z,96392.53
2022-11-09T07:28:20.327Z,96381.47
2022-11-09T07:30:51.808Z,96379.72
2022-11-09T07:33:23.320Z,96378.47
2022-11-09T07:35:54.616Z,96384.81
2022-11-09T07:38:23.016Z,96392.75
2022-11-09T07:40:52.375Z,96398.41
2022-11-09T07:43:21.527Z,96390.69
2022-11-09T07:45:53.242Z,96389.63
2022-11-09T07:48:21.832Z,96385.25
2022-11-09T07:50:50.774Z,96390.13
2022-11-09T07:53:21.449Z,96385.38
2022-11-09T07:55:58.265Z,96389.28
2022-11-09T07:58:26.994Z,96383.72
2022-11-09T08:00:55.759Z,96386.31
2022-11-09T08:03:25.773Z,96391.19
2022-11-09T08:05:54.635Z,96391.13
2022-11-09T08:08:24.413Z,96389.78
2022-11-09T08:10:54.008Z,96395.03
2022-11-09T08:13:22.829Z,96387.22
2022-11-09T08:15:52.280Z,96382.56
2022-11-09T08:18:23.644Z,96385.38
2022-11-09T08:20:52.301Z,96379.00
2022-11-09T08:23:22.417Z,96378.75
2022-11-09T08:25:52.978Z,96387.69
2022-11-09T08:28:22.473Z,96387.84
2022-11-09T08:30:57.911Z,96407.38
2022-11-09T08:33:28.007Z,96396.00
2022-11-09T08:35:56.935Z,96394.28
2022-11-09T08:38:25.566Z,96398.28
2022-11-09T08:41:00.014Z,96394.81
2022-11-09T08:43:28.955Z,96408.66
2022-11-09T08:45:57.329Z,96418.09
2022-11-09T08:48:26.518Z,96421.28
2022-11-09T08:50:56.372Z,96416.22
2022-11-09T08:53:26.527Z,96425.06
2022-11-09T08:55:56.111Z,96428.47
2022-11-09T08:58:26.267Z,96428.56
2022-11-09T09:00:55.110Z,96425.81
2022-11-09T09:03:23.583Z,96422.47
2022-11-09T09:05:52.859Z,96423.25
2022-11-09T09:08:23.256Z,96404.25
2022-11-09T09:10:53.258Z,96425.53
2022-11-09T09:13:23.117Z,96422.03
2022-11-09T09:15:52.817Z,96421.09
2022-11-09T09:18:22.764Z,96419.63
2022-11-09T09:20:52.041Z,96425.94
2022-11-09T09:23:20.403Z,96434.19
2022-11-09T09:25:49.789Z,96432.22
2022-11-09T09:28:18.952Z,96422.38
2022-11-09T09:30:47.449Z,96425.50
2022-11-09T09:33:19.058Z,96427.97
2022-11-09T09:35:47.432Z,96439.28
2022-11-09T09:38:16.554Z,96429.63
2022-11-09T09:40:59.500Z,96444.47
2022-11-09T09:43:34.553Z,96450.47
2022-11-09T09:46:08.865Z,96445.75
2022-11-09T09:48:42.732Z,96454.09
2022-11-09T09:51:17.886Z,96463.75
2022-11-09T09:53:51.359Z,96451.63
2022-11-09T09:56:22.899Z,96461.50
2022-11-09T09:59:00.430Z,96462.09
2022-11-09T10:01:36.571Z,96461.66
2022-11-09T10:04:16.922Z,96455.03
2022-11-09T10:07:00.498Z,96461.19
2022-11-09T10:09:46.133Z,96454.28
2022-11-09T10:12:24.450Z,96451.13
2022-11-09T10:15:13.948Z,96452.91
2022-11-09T10:17:53.510Z,96452.47
2022-11-09T10:20:39.912Z,96448.25
2022-11-09T10:23:28.925Z,96437.53
2022-11-09T10:26:06.881Z,96444.56
2022-11-09T10:29:09.684Z,96432.38
2022-11-09T10:31:34.990Z,96433.91
2022-11-09T10:34:14.263Z,96441.31
2022-11-09T10:36:48.559Z,96436.56
2022-11-09T10:39:18.886Z,96432.53
2022-11-09T10:42:05.823Z,96435.91
2022-11-09T10:44:53.710Z,96435.38
2022-11-09T10:47:49.720Z,96431.13
2022-11-09T10:50:40.150Z,96413.44
2022-11-09T10:53:29.604Z,96412.16
2022-11-09T10:56:21.829Z,96411.75
2022-11-09T10:59:45.146Z,96418.16
2022-11-09T11:02:45.648Z,96410.00
2022-11-09T11:05:35.917Z,96413.31
2022-11-09T11:08:26.541Z,96410.88
2022-11-09T11:11:36.438Z,96411.38
2022-11-09T11:14:30.966Z,96408.19
2022-11-09T11:17:26.516Z,96405.03
2022-11-09T11:20:29.036Z,96394.72
2022-11-09T11:23:19.240Z,96399.94
2022-11-09T11:26:33.318Z,96395.94
2022-11-09T11:29:37.429Z,96403.03
2022-11-09T11:32:25.069Z,96392.31
2022-11-09T11:35:17.196Z,96396.69
2022-11-09T11:38:21.296Z,96396.44
2022-11-09T11:41:32.749Z,96393.16
2022-11-09T11:44:43.241Z,96395.53
2022-11-09T11:47:38.389Z,96384.50
2022-11-09T11:50:36.864Z,96387.38
2022-11-09T11:53:43.561Z,96388.41
2022-11-09T11:56:37.291Z,96383.63
2022-11-09T11:59:54.422Z,96371.94
2022-11-09T12:03:03.493Z,96380.69
2022-11-09T12:06:04.124Z,96384.88
2022-11-09T12:09:09.087Z,96384.38
2022-11-09T12:12:08.569Z,96370.25
2022-11-09T12:15:15.338Z,96359.59
2022-11-09T12:18:14.961Z,96354.97
2022-11-09T12:21:14.075Z,96356.00
2022-11-09T12:24:16.486Z,96360.13
2022-11-09T12:27:32.469Z,96351.38
2022-11-09T12:30:24.577Z,96345.16
2022-11-09T12:33:16.793Z,96339.97
2022-11-09T12:36:13.382Z,96337.25
2022-11-09T12:39:05.069Z,96344.34
2022-11-09T12:41:57.318Z,96332.59
2022-11-09T12:44:49.310Z,96340.50
2022-11-09T12:47:42.952Z,96340.22
2022-11-09T12:50:30.564Z,96340.78
2022-11-09T12:53:19.569Z,96350.81
2022-11-09T12:56:11.201Z,96341.66
2022-11-09T12:59:23.675Z,96347.97
2022-11-09T13:02:23.635Z,96336.31
2022-11-09T13:05:30.442Z,96340.56
2022-11-09T13:08:21.629Z,96331.53
2022-11-09T13:11:12.395Z,96328.53
2022-11-09T13:14:33.332Z,96324.69
2022-11-09T13:18:04.504Z,96319.44
2022-11-09T13:20:58.475Z,96314.47
2022-11-09T13:24:03.879Z,96316.22
2022-11-09T13:27:00.097Z,96316.56
2022-11-09T13:29:56.047Z,96320.19
2022-11-09T13:33:25.095Z,96315.03
2022-11-09T13:36:20.795Z,96321.63
2022-11-09T13:39:39.642Z,96317.22
2022-11-09T13:42:32.171Z,96318.63
2022-11-09T13:45:34.305Z,96315.06
2022-11-09T13:48:40.674Z,96304.97
2022-11-09T13:51:45.036Z,96301.47
2022-11-09T13:54:33.641Z,96292.72
2022-11-09T13:57:23.932Z,96301.72
2022-11-09T14:00:18.868Z,96308.53
2022-11-09T14:03:19.158Z,96307.47
2022-11-09T14:06:07.810Z,96308.81
2022-11-09T14:08:55.629Z,96313.72
2022-11-09T14:12:09.828Z,96311.81
2022-11-09T14:15:14.998Z,96304.72
2022-11-09T14:18:16.103Z,96314.53
2022-11-09T14:21:25.906Z,96320.28
2022-11-09T14:24:19.879Z,96322.19
2022-11-09T14:27:15.608Z,96319.47
2022-11-09T14:30:03.146Z,96324.41
2022-11-09T14:32:54.427Z,96328.75
2022-11-09T14:35:41.275Z,96321.91
2022-11-09T14:38:32.971Z,96319.47
2022-11-09T14:41:22.948Z,96332.34
2022-11-09T14:44:17.863Z,96328.25
2022-11-09T14:47:06.614Z,96334.78
2022-11-09T14:49:54.566Z,96327.16
2022-11-09T14:52:41.821Z,96327.97
2022-11-09T14:55:42.397Z,96331.53
2022-11-09T14:58:31.286Z,96327.38
2022-11-09T15:01:24.521Z,96327.66
2022-11-09T15:04:16.866Z,96329.28
2022-11-09T15:07:06.061Z,96324.94
2022-11-09T15:09:57.074Z,96316.47
2022-11-09T15:12:50.649Z,96321.38
2022-11-09T15:15:39.248Z,96320.56
2022-11-09T15:18:33.847Z,96323.00
2022-11-09T15:21:35.042Z,96322.19
2022-11-09T15:24:23.238Z,96326.00
2022-11-09T15:27:30.631Z,96330.63
2022-11-09T15:30:35.174Z,96322.44
2022-11-09T15:33:29.272Z,96333.03
2022-11-09T15:36:35.135Z,96330.81
2022-11-09T15:39:23.795Z,96333.53
2022-11-09T15:42:12.757Z,96332.47
2022-11-09T15:45:00.805Z,96331.31
2022-11-09T15:47:54.336Z,96347.63
2022-11-09T15:50:41.594Z,96352.44
2022-11-09T15:53:29.425Z,96329.69
2022-11-09T15:56:19.148Z,96356.94
2022-11-09T15:59:07.860Z,96357.28
2022-11-09T16:01:55.034Z,96349.06
2022-11-09T16:04:43.801Z,96341.66
2022-11-09T16:07:30.967Z,96346.75
2022-11-09T16:10:20.261Z,96348.97
2022-11-09T16:13:08.114Z,96353.31
2022-11-09T16:16:02.945Z,96358.78
2022-11-09T16:18:50.062Z,96369.63
2022-11-09T16:21:38.707Z,96368.25
2022-11-09T16:24:25.922Z,96374.28
2022-11-09T16:27:35.362Z,96374.59
2022-11-09T16:30:21.805Z,96375.69
2022-11-09T16:33:09.574Z,96372.13
2022-11-09T16:36:00.010Z,96383.78
2022-11-09T16:38:50.452Z,96374.50
2022-11-09T16:41:40.875Z,96387.31
2022-11-09T16:44:32.806Z,96394.94
2022-11-09T16:47:22.256Z,96387.84
2022-11-09T16:50:09.674Z,96390.84
2022-11-09T16:52:56.374Z,96394.06
2022-11-09T16:55:44.946Z,96397.31
2022-11-09T16:58:32.031Z,96407.66
2022-11-09T17:01:23.182Z,96413.09
2022-11-09T17:04:10.987Z,96424.81
2022-11-09T17:06:58.452Z,96426.72
2022-11-09T17:09:45.668Z,96427.47
2022-11-09T17:12:34.303Z,96430.13
2022-11-09T17:15:21.597Z,96429.84
2022-11-09T17:18:09.970Z,96430.13
2022-11-09T17:20:56.919Z,96437.16
2022-11-09T17:23:44.279Z,96429.78
2022-11-09T17:26:32.655Z,96441.22
2022-11-09T17:29:21.102Z,96442.91
2022-11-09T17:32:10.658Z,96436.06
2022-11-09T17:34:57.955Z,96449.97
2022-11-09T17:37:44.700Z,96443.97
2022-11-09T17:40:31.960Z,96447.75
2022-11-09T17:43:19.067Z,96457.28
2022-11-09T17:46:10.439Z,96456.72
2022-11-09T17:48:56.985Z,96461.56
2022-11-09T17:51:44.127Z,96464.28
2022-11-09T17:54:36.789Z,96463.72
2022-11-09T17:57:24.834Z,96461.84
2022-11-09T18:00:13.119Z,96473.78
2022-11-09T18:03:01.722Z,96470.19
2022-11-09T18:05:48.683Z,96470.41
2022-11-09T18:08:36.355Z,96474.47
2022-11-09T18:11:23.286Z,96480.47
2022-11-09T18:14:11.557Z,96478.53
2022-11-09T18:17:01.203Z,96467.13
2022-11-09T18:19:49.631Z,96474.41
2022-11-09T18:22:36.646Z,96470.81
2022-11-09T18:25:23.758Z,96481.94
2022-11-09T18:28:13.498Z,96481.69
2022-11-09T18:31:01.688Z,96481.38
2022-11-09T18:33:49.093Z,96484.91
2022-11-09T18:36:37.644Z,96486.81
2022-11-09T18:39:26.334Z,96481.91
2022-11-09T18:42:13.552Z,96485.63
2022-11-09T18:45:00.648Z,96498.97
2022-11-09T18:47:49.595Z,96505.47
2022-11-09T18:50:39.021Z,96498.72
2022-11-09T18:53:29.072Z,96502.25
2022-11-09T18:56:19.472Z,96507.94
2022-11-09T18:59:06.491Z,96510.41
2022-11-09T19:01:53.575Z,96501.13
2022-11-09T19:04:41.153Z,96504.06
2022-11-09T19:07:28.838Z,96502.75
2022-11-09T19:10:17.332Z,96506.59
2022-11-09T19:13:04.868Z,96497.59
2022-11-09T19:15:57.138Z,96511.00
2022-11-09T19:18:45.138Z,96512.03
2022-11-09T19:21:38.105Z,96508.28
2022-11-09T19:24:26.932Z,96520.97
2022-11-09T19:27:15.079Z,96513.09
2022-11-09T19:30:07.964Z,96515.13
2022-11-09T19:32:56.611Z,96515.31
2022-11-09T19:35:43.302Z,96518.72
2022-11-09T19:38:30.438Z,96508.34
2022-11-09T19:41:17.345Z,96537.69
2022-11-09T19:44:07.158Z,96540.41
2022-11-09T19:46:53.982Z,96540.59
2022-11-09T19:49:41.094Z,96548.41
2022-11-09T19:52:28.336Z,96552.53
2022-11-09T19:55:15.065Z,96559.97
2022-11-09T19:58:02.142Z,96553.91
2022-11-09T20:00:50.514Z,96547.88
2022-11-09T20:03:38.035Z,96555.59
2022-11-09T20:06:26.586Z,96558.84
2022-11-09T20:09:13.791Z,96545.69
2022-11-09T20:12:18.083Z,96561.44
2022-11-09T20:15:06.079Z,96560.16
2022-11-09T20:17:54.514Z,96565.22
2022-11-09T20:20:42.103Z,96567.69
2022-11-09T20:23:29.670Z,96566.81
2022-11-09T20:26:16.914Z,96569.44
2022-11-09T20:29:05.116Z,96570.16
2022-11-09T20:31:52.114Z,96568.88
2022-11-09T20:34:40.679Z,96559.31
2022-11-09T20:37:28.301Z,96575.84
2022-11-09T20:40:15.297Z,96566.13
2022-11-09T20:43:02.517Z,96576.94
2022-11-09T20:45:49.487Z,96580.78
2022-11-09T20:48:54.896Z,96596.09
2022-11-09T20:51:44.743Z,96555.69
2022-11-09T20:54:32.038Z,96585.41
2022-11-09T20:57:19.568Z,96583.78
2022-11-09T21:00:08.241Z,96590.91
2022-11-09T21:02:55.405Z,96590.84
2022-11-09T21:05:46.653Z,96601.34
2022-11-09T21:08:38.696Z,96602.78
2022-11-09T21:11:28.771Z,96613.63
2022-11-09T21:14:15.982Z,96605.16
2022-11-09T21:17:03.182Z,96610.06
2022-11-09T21:19:50.477Z,96606.31
2022-11-09T21:22:57.051Z,96613.63
2022-11-09T21:26:03.032Z,96612.22
2022-11-09T21:29:08.130Z,96607.53
2022-11-09T21:31:55.330Z,96618.81
2022-11-09T21:34:43.339Z,96622.66
2022-11-09T21:37:30.875Z,96633.31
2022-11-09T21:40:18.375Z,96636.59
2022-11-09T21:43:06.865Z,96637.97
2022-11-09T21:45:54.787Z,96646.47
2022-11-09T21:48:41.719Z,96650.00
2022-11-09T21:51:29.466Z,96647.03
2022-11-09T21:54:16.846Z,96644.31
2022-11-09T21:57:03.962Z,96645.41
2022-11-09T21:59:52.873Z,96650.00
2022-11-09T22:02:39.868Z,96652.47
2022-11-09T22:05:26.846Z,96656.56
2022-11-09T22:08:14.523Z,96662.00
2022-11-09T22:11:06.059Z,96660.94
2022-11-09T22:14:10.963Z,96661.75
2022-11-09T22:17:00.153Z,96650.75
2022-11-09T22:20:04.467Z,96670.91
2022-11-09T22:22:52.135Z,96660.53
2022-11-09T22:25:42.699Z,96665.50
2022-11-09T22:28:33.590Z,96646.53
2022-11-09T22:31:20.352Z,96676.66
2022-11-09T22:34:09.163Z,96679.94
2022-11-09T22:36:56.110Z,96684.09
2022-11-09T22:39:47.265Z,96678.66
2022-11-09T22:42:35.073Z,96678.31
2022-11-09T22:45:22.362Z,96694.69
2022-11-09T22:48:09.491Z,96680.78
2022-11-09T22:50:58.626Z,96684.00
2022-11-09T22:53:49.273Z,96686.47
2022-11-09T22:56:37.471Z,96689.69
2022-11-09T22:59:24.938Z,96682.59
2022-11-09T23:02:11.908Z,96695.13
2022-11-09T23:04:58.916Z,96701.13
2022-11-09T23:07:47.194Z,96698.91
2022-11-09T23:10:34.873Z,96708.94
2022-11-09T23:13:22.640Z,96717.09
2022-11-09T23:16:12.250Z,96715.19
2022-11-09T23:18:59.170Z,96717.31
2022-11-09T23:21:46.279Z,96717.91
2022-11-09T23:24:52.643Z,96724.41
2022-11-09T23:27:39.866Z,96721.72
2022-11-09T23:30:27.884Z,96726.88
2022-11-09T23:33:15.286Z,96726.06
2022-11-09T23:36:04.574Z,96728.53
2022-11-09T23:38:51.574Z,96730.69
2022-11-09T23:41:40.226Z,96733.97
2022-11-09T23:44:27.582Z,96735.03
2022-11-09T23:47:14.674Z,96723.00
2022-11-09T23:50:02.636Z,96728.38
2022-11-09T23:52:49.857Z,96734.47
2022-11-09T23:55:36.853Z,96736.59
2022-11-09T23:58:26.272Z,96745.47
